sensor_id;sensor_type;location;lat;lon;timestamp;P1;durP1;ratioP1;P2;durP2;ratioP2
52124;SDS011;38119;52.710;6.398;2022-07-01T00:02:06;3.45;;;1.30;;
52124;SDS011;38119;52.710;6.398;2022-07-01T00:04:32;3.03;;;0.90;;
52124;SDS011;38119;52.710;6.398;2022-07-01T00:06:58;2.55;;;1.20;;
52124;SDS011;38119;52.710;6.398;2022-07-01T00:09:23;2.17;;;1.10;;
52124;SDS011;38119;52.710;6.398;2022-07-01T00:11:49;2.13;;;1.05;;
52124;SDS011;38119;52.710;6.398;2022-07-01T00:14:15;2.15;;;1.00;;
52124;SDS011;38119;52.710;6.398;2022-07-01T00:16:41;1.95;;;1.00;;
52124;SDS011;38119;52.710;6.398;2022-07-01T00:19:06;2.63;;;1.02;;
52124;SDS011;38119;52.710;6.398;2022-07-01T00:21:33;1.98;;;1.10;;
52124;SDS011;38119;52.710;6.398;2022-07-01T00:23:59;0.82;;;0.80;;
52124;SDS011;38119;52.710;6.398;2022-07-01T00:26:24;1.73;;;0.90;;
52124;SDS011;38119;52.710;6.398;2022-07-01T00:28:50;1.45;;;0.82;;
52124;SDS011;38119;52.710;6.398;2022-07-01T00:31:16;2.17;;;1.00;;
52124;SDS011;38119;52.710;6.398;2022-07-01T00:33:41;1.65;;;0.90;;
52124;SDS011;38119;52.710;6.398;2022-07-01T00:36:07;4.00;;;1.00;;
52124;SDS011;38119;52.710;6.398;2022-07-01T00:38:33;1.58;;;1.15;;
52124;SDS011;38119;52.710;6.398;2022-07-01T00:40:58;0.77;;;0.77;;
52124;SDS011;38119;52.710;6.398;2022-07-01T00:43:24;1.55;;;0.85;;
52124;SDS011;38119;52.710;6.398;2022-07-01T00:45:50;2.42;;;1.02;;
52124;SDS011;38119;52.710;6.398;2022-07-01T00:48:18;1.17;;;0.98;;
52124;SDS011;38119;52.710;6.398;2022-07-01T00:50:46;2.95;;;1.27;;
52124;SDS011;38119;52.710;6.398;2022-07-01T00:53:12;2.60;;;1.20;;
52124;SDS011;38119;52.710;6.398;2022-07-01T00:55:38;2.05;;;1.10;;
52124;SDS011;38119;52.710;6.398;2022-07-01T00:58:05;1.95;;;1.15;;
52124;SDS011;38119;52.710;6.398;2022-07-01T01:00:32;2.03;;;1.40;;
52124;SDS011;38119;52.710;6.398;2022-07-01T01:02:57;2.42;;;1.20;;
52124;SDS011;38119;52.710;6.398;2022-07-01T01:05:24;2.30;;;1.27;;
52124;SDS011;38119;52.710;6.398;2022-07-01T01:07:50;2.13;;;1.52;;
52124;SDS011;38119;52.710;6.398;2022-07-01T01:10:16;2.03;;;1.40;;
52124;SDS011;38119;52.710;6.398;2022-07-01T01:12:42;2.58;;;1.48;;
52124;SDS011;38119;52.710;6.398;2022-07-01T01:15:08;1.60;;;1.50;;
52124;SDS011;38119;52.710;6.398;2022-07-01T01:17:35;2.65;;;1.83;;
52124;SDS011;38119;52.710;6.398;2022-07-01T01:20:01;3.67;;;2.97;;
52124;SDS011;38119;52.710;6.398;2022-07-01T01:22:27;8.85;;;4.95;;
52124;SDS011;38119;52.710;6.398;2022-07-01T01:24:53;10.45;;;8.00;;
52124;SDS011;38119;52.710;6.398;2022-07-01T01:27:18;12.32;;;10.68;;
52124;SDS011;38119;52.710;6.398;2022-07-01T01:29:44;15.38;;;13.55;;
52124;SDS011;38119;52.710;6.398;2022-07-01T01:32:10;16.25;;;14.32;;
52124;SDS011;38119;52.710;6.398;2022-07-01T01:34:37;17.55;;;15.65;;
52124;SDS011;38119;52.710;6.398;2022-07-01T01:37:04;18.92;;;15.13;;
52124;SDS011;38119;52.710;6.398;2022-07-01T01:39:30;20.27;;;15.93;;
52124;SDS011;38119;52.710;6.398;2022-07-01T01:41:56;18.08;;;15.27;;
52124;SDS011;38119;52.710;6.398;2022-07-01T01:44:22;16.92;;;14.45;;
52124;SDS011;38119;52.710;6.398;2022-07-01T01:46:47;16.05;;;14.25;;
52124;SDS011;38119;52.710;6.398;2022-07-01T01:49:13;18.48;;;13.25;;
52124;SDS011;38119;52.710;6.398;2022-07-01T01:51:39;20.10;;;14.38;;
52124;SDS011;38119;52.710;6.398;2022-07-01T01:54:05;14.93;;;11.73;;
52124;SDS011;38119;52.710;6.398;2022-07-01T01:56:31;16.73;;;11.63;;
52124;SDS011;38119;52.710;6.398;2022-07-01T01:58:57;15.43;;;11.35;;
52124;SDS011;38119;52.710;6.398;2022-07-01T02:01:23;13.32;;;10.75;;
52124;SDS011;38119;52.710;6.398;2022-07-01T02:03:50;15.77;;;10.75;;
52124;SDS011;38119;52.710;6.398;2022-07-01T02:06:18;13.10;;;9.88;;
52124;SDS011;38119;52.710;6.398;2022-07-01T02:08:45;14.57;;;9.98;;
52124;SDS011;38119;52.710;6.398;2022-07-01T02:11:11;15.07;;;9.75;;
52124;SDS011;38119;52.710;6.398;2022-07-01T02:13:37;11.68;;;9.27;;
52124;SDS011;38119;52.710;6.398;2022-07-01T02:16:03;15.88;;;10.23;;
52124;SDS011;38119;52.710;6.398;2022-07-01T02:18:29;13.18;;;9.45;;
52124;SDS011;38119;52.710;6.398;2022-07-01T02:20:56;14.48;;;10.45;;
52124;SDS011;38119;52.710;6.398;2022-07-01T02:23:21;13.07;;;10.15;;
52124;SDS011;38119;52.710;6.398;2022-07-01T02:25:47;12.90;;;9.75;;
52124;SDS011;38119;52.710;6.398;2022-07-01T02:28:13;12.55;;;9.52;;
52124;SDS011;38119;52.710;6.398;2022-07-01T02:30:39;12.52;;;9.70;;
52124;SDS011;38119;52.710;6.398;2022-07-01T02:33:05;12.10;;;9.32;;
52124;SDS011;38119;52.710;6.398;2022-07-01T02:35:32;13.05;;;9.65;;
52124;SDS011;38119;52.710;6.398;2022-07-01T02:37:59;12.82;;;8.65;;
52124;SDS011;38119;52.710;6.398;2022-07-01T02:40:25;10.07;;;7.78;;
52124;SDS011;38119;52.710;6.398;2022-07-01T02:42:50;11.90;;;8.18;;
52124;SDS011;38119;52.710;6.398;2022-07-01T02:45:16;10.70;;;7.63;;
52124;SDS011;38119;52.710;6.398;2022-07-01T02:47:42;11.25;;;8.05;;
52124;SDS011;38119;52.710;6.398;2022-07-01T02:50:11;9.20;;;7.28;;
52124;SDS011;38119;52.710;6.398;2022-07-01T02:52:38;11.10;;;7.68;;
52124;SDS011;38119;52.710;6.398;2022-07-01T02:55:05;12.55;;;8.65;;
52124;SDS011;38119;52.710;6.398;2022-07-01T02:57:32;10.98;;;8.23;;
52124;SDS011;38119;52.710;6.398;2022-07-01T02:59:58;11.60;;;8.35;;
52124;SDS011;38119;52.710;6.398;2022-07-01T03:02:24;12.15;;;8.63;;
52124;SDS011;38119;52.710;6.398;2022-07-01T03:04:50;13.18;;;9.95;;
52124;SDS011;38119;52.710;6.398;2022-07-01T03:07:17;16.25;;;10.85;;
52124;SDS011;38119;52.710;6.398;2022-07-01T03:09:44;15.95;;;11.70;;
52124;SDS011;38119;52.710;6.398;2022-07-01T03:12:10;14.93;;;11.88;;
52124;SDS011;38119;52.710;6.398;2022-07-01T03:14:59;18.23;;;13.15;;
52124;SDS011;38119;52.710;6.398;2022-07-01T03:17:35;18.55;;;13.63;;
52124;SDS011;38119;52.710;6.398;2022-07-01T03:20:03;19.88;;;13.90;;
52124;SDS011;38119;52.710;6.398;2022-07-01T03:22:31;18.17;;;13.75;;
52124;SDS011;38119;52.710;6.398;2022-07-01T03:24:58;18.30;;;14.35;;
52124;SDS011;38119;52.710;6.398;2022-07-01T03:27:24;20.33;;;15.20;;
52124;SDS011;38119;52.710;6.398;2022-07-01T03:29:50;19.42;;;14.90;;
52124;SDS011;38119;52.710;6.398;2022-07-01T03:32:16;21.80;;;15.88;;
52124;SDS011;38119;52.710;6.398;2022-07-01T03:34:46;21.42;;;16.08;;
52124;SDS011;38119;52.710;6.398;2022-07-01T03:37:14;20.58;;;16.88;;
52124;SDS011;38119;52.710;6.398;2022-07-01T03:39:41;21.00;;;17.33;;
52124;SDS011;38119;52.710;6.398;2022-07-01T03:42:08;22.30;;;17.42;;
52124;SDS011;38119;52.710;6.398;2022-07-01T03:44:34;22.73;;;17.92;;
52124;SDS011;38119;52.710;6.398;2022-07-01T03:47:01;22.75;;;17.85;;
52124;SDS011;38119;52.710;6.398;2022-07-01T03:49:27;24.67;;;16.98;;
52124;SDS011;38119;52.710;6.398;2022-07-01T03:51:53;22.02;;;18.10;;
52124;SDS011;38119;52.710;6.398;2022-07-01T03:54:19;24.25;;;18.92;;
52124;SDS011;38119;52.710;6.398;2022-07-01T03:57:07;25.83;;;18.85;;
52124;SDS011;38119;52.710;6.398;2022-07-01T03:59:40;23.63;;;18.15;;
52124;SDS011;38119;52.710;6.398;2022-07-01T04:02:06;25.52;;;19.05;;
52124;SDS011;38119;52.710;6.398;2022-07-01T04:04:32;23.27;;;18.38;;
52124;SDS011;38119;52.710;6.398;2022-07-01T04:06:59;26.17;;;18.67;;
52124;SDS011;38119;52.710;6.398;2022-07-01T04:09:26;25.38;;;19.63;;
52124;SDS011;38119;52.710;6.398;2022-07-01T04:11:54;24.92;;;19.17;;
52124;SDS011;38119;52.710;6.398;2022-07-01T04:14:20;27.08;;;19.73;;
52124;SDS011;38119;52.710;6.398;2022-07-01T04:16:46;24.33;;;18.85;;
52124;SDS011;38119;52.710;6.398;2022-07-01T04:19:13;25.02;;;19.38;;
52124;SDS011;38119;52.710;6.398;2022-07-01T04:21:39;26.33;;;19.92;;
52124;SDS011;38119;52.710;6.398;2022-07-01T04:24:24;24.33;;;19.75;;
52124;SDS011;38119;52.710;6.398;2022-07-01T04:26:50;26.40;;;19.77;;
52124;SDS011;38119;52.710;6.398;2022-07-01T04:29:18;25.23;;;19.80;;
52124;SDS011;38119;52.710;6.398;2022-07-01T04:31:44;24.92;;;20.35;;
52124;SDS011;38119;52.710;6.398;2022-07-01T04:34:10;28.00;;;21.35;;
52124;SDS011;38119;52.710;6.398;2022-07-01T04:36:37;29.42;;;21.80;;
52124;SDS011;38119;52.710;6.398;2022-07-01T04:39:03;27.33;;;22.02;;
52124;SDS011;38119;52.710;6.398;2022-07-01T04:41:29;26.15;;;21.65;;
52124;SDS011;38119;52.710;6.398;2022-07-01T04:44:14;27.90;;;22.52;;
52124;SDS011;38119;52.710;6.398;2022-07-01T04:46:40;28.55;;;22.23;;
52124;SDS011;38119;52.710;6.398;2022-07-01T04:49:05;26.73;;;22.20;;
52124;SDS011;38119;52.710;6.398;2022-07-01T04:51:32;28.58;;;22.75;;
52124;SDS011;38119;52.710;6.398;2022-07-01T04:54:00;33.15;;;24.33;;
52124;SDS011;38119;52.710;6.398;2022-07-01T04:56:26;32.00;;;23.65;;
52124;SDS011;38119;52.710;6.398;2022-07-01T04:58:54;32.45;;;23.30;;
52124;SDS011;38119;52.710;6.398;2022-07-01T05:01:20;28.75;;;22.42;;
52124;SDS011;38119;52.710;6.398;2022-07-01T05:03:46;29.55;;;23.33;;
52124;SDS011;38119;52.710;6.398;2022-07-01T05:06:11;33.28;;;24.85;;
52124;SDS011;38119;52.710;6.398;2022-07-01T05:08:37;32.85;;;24.73;;
52124;SDS011;38119;52.710;6.398;2022-07-01T05:11:02;30.83;;;24.33;;
52124;SDS011;38119;52.710;6.398;2022-07-01T05:13:28;31.30;;;24.88;;
52124;SDS011;38119;52.710;6.398;2022-07-01T05:15:53;32.13;;;23.98;;
52124;SDS011;38119;52.710;6.398;2022-07-01T05:18:19;30.00;;;23.95;;
52124;SDS011;38119;52.710;6.398;2022-07-01T05:21:04;29.65;;;23.40;;
52124;SDS011;38119;52.710;6.398;2022-07-01T05:23:47;31.20;;;24.02;;
52124;SDS011;38119;52.710;6.398;2022-07-01T05:26:13;30.42;;;24.30;;
52124;SDS011;38119;52.710;6.398;2022-07-01T05:28:42;28.27;;;23.10;;
52124;SDS011;38119;52.710;6.398;2022-07-01T05:31:09;29.42;;;24.00;;
52124;SDS011;38119;52.710;6.398;2022-07-01T05:33:35;32.85;;;23.55;;
52124;SDS011;38119;52.710;6.398;2022-07-01T05:36:01;29.42;;;23.10;;
52124;SDS011;38119;52.710;6.398;2022-07-01T05:38:27;30.83;;;23.23;;
52124;SDS011;38119;52.710;6.398;2022-07-01T05:40:52;31.73;;;23.45;;
52124;SDS011;38119;52.710;6.398;2022-07-01T05:43:18;29.10;;;24.35;;
52124;SDS011;38119;52.710;6.398;2022-07-01T05:45:45;31.55;;;23.90;;
52124;SDS011;38119;52.710;6.398;2022-07-01T05:48:11;28.27;;;22.85;;
52124;SDS011;38119;52.710;6.398;2022-07-01T05:50:36;30.13;;;23.63;;
52124;SDS011;38119;52.710;6.398;2022-07-01T05:53:02;29.90;;;23.70;;
52124;SDS011;38119;52.710;6.398;2022-07-01T05:55:28;32.33;;;25.10;;
52124;SDS011;38119;52.710;6.398;2022-07-01T05:57:54;33.33;;;25.90;;
52124;SDS011;38119;52.710;6.398;2022-07-01T06:00:19;30.33;;;24.60;;
52124;SDS011;38119;52.710;6.398;2022-07-01T06:02:45;30.92;;;24.00;;
52124;SDS011;38119;52.710;6.398;2022-07-01T06:05:11;30.92;;;23.92;;
52124;SDS011;38119;52.710;6.398;2022-07-01T06:07:38;32.30;;;24.08;;
52124;SDS011;38119;52.710;6.398;2022-07-01T06:10:06;31.88;;;23.63;;
52124;SDS011;38119;52.710;6.398;2022-07-01T06:12:32;32.60;;;25.10;;
52124;SDS011;38119;52.710;6.398;2022-07-01T06:14:58;32.20;;;25.50;;
52124;SDS011;38119;52.710;6.398;2022-07-01T06:17:23;34.55;;;24.80;;
52124;SDS011;38119;52.710;6.398;2022-07-01T06:19:49;32.08;;;25.55;;
52124;SDS011;38119;52.710;6.398;2022-07-01T06:22:15;29.10;;;24.02;;
52124;SDS011;38119;52.710;6.398;2022-07-01T06:24:43;30.45;;;24.15;;
52124;SDS011;38119;52.710;6.398;2022-07-01T06:27:10;30.77;;;24.08;;
52124;SDS011;38119;52.710;6.398;2022-07-01T06:29:36;32.10;;;24.38;;
52124;SDS011;38119;52.710;6.398;2022-07-01T06:32:02;30.38;;;22.90;;
52124;SDS011;38119;52.710;6.398;2022-07-01T06:34:29;30.52;;;22.65;;
52124;SDS011;38119;52.710;6.398;2022-07-01T06:36:54;32.92;;;24.80;;
52124;SDS011;38119;52.710;6.398;2022-07-01T06:39:21;28.15;;;22.95;;
52124;SDS011;38119;52.710;6.398;2022-07-01T06:41:46;31.25;;;23.65;;
52124;SDS011;38119;52.710;6.398;2022-07-01T06:44:12;30.42;;;24.33;;
52124;SDS011;38119;52.710;6.398;2022-07-01T06:46:38;32.22;;;23.77;;
52124;SDS011;38119;52.710;6.398;2022-07-01T06:49:04;30.17;;;23.60;;
52124;SDS011;38119;52.710;6.398;2022-07-01T06:51:29;32.65;;;24.00;;
52124;SDS011;38119;52.710;6.398;2022-07-01T06:53:56;31.30;;;24.63;;
52124;SDS011;38119;52.710;6.398;2022-07-01T06:56:22;31.17;;;23.58;;
52124;SDS011;38119;52.710;6.398;2022-07-01T06:58:47;33.03;;;23.95;;
52124;SDS011;38119;52.710;6.398;2022-07-01T07:01:13;30.38;;;23.92;;
52124;SDS011;38119;52.710;6.398;2022-07-01T07:03:39;33.05;;;24.52;;
52124;SDS011;38119;52.710;6.398;2022-07-01T07:06:04;30.42;;;24.63;;
52124;SDS011;38119;52.710;6.398;2022-07-01T07:08:30;30.85;;;24.15;;
52124;SDS011;38119;52.710;6.398;2022-07-01T07:10:57;30.58;;;24.48;;
52124;SDS011;38119;52.710;6.398;2022-07-01T07:13:24;30.33;;;24.15;;
52124;SDS011;38119;52.710;6.398;2022-07-01T07:15:50;29.33;;;23.92;;
52124;SDS011;38119;52.710;6.398;2022-07-01T07:18:15;33.10;;;23.42;;
52124;SDS011;38119;52.710;6.398;2022-07-01T07:20:41;31.63;;;24.38;;
52124;SDS011;38119;52.710;6.398;2022-07-01T07:23:07;29.83;;;23.70;;
52124;SDS011;38119;52.710;6.398;2022-07-01T07:25:33;29.77;;;23.52;;
52124;SDS011;38119;52.710;6.398;2022-07-01T07:27:58;29.25;;;21.80;;
52124;SDS011;38119;52.710;6.398;2022-07-01T07:30:24;30.88;;;22.40;;
52124;SDS011;38119;52.710;6.398;2022-07-01T07:32:50;29.75;;;21.98;;
52124;SDS011;38119;52.710;6.398;2022-07-01T07:35:15;28.33;;;22.63;;
52124;SDS011;38119;52.710;6.398;2022-07-01T07:37:41;29.45;;;22.05;;
52124;SDS011;38119;52.710;6.398;2022-07-01T07:40:08;28.40;;;20.73;;
52124;SDS011;38119;52.710;6.398;2022-07-01T07:42:38;28.77;;;21.10;;
52124;SDS011;38119;52.710;6.398;2022-07-01T07:45:06;27.58;;;21.85;;
52124;SDS011;38119;52.710;6.398;2022-07-01T07:47:35;29.08;;;21.55;;
52124;SDS011;38119;52.710;6.398;2022-07-01T07:50:02;27.50;;;21.98;;
52124;SDS011;38119;52.710;6.398;2022-07-01T07:52:28;28.33;;;20.95;;
52124;SDS011;38119;52.710;6.398;2022-07-01T07:54:54;25.70;;;20.63;;
52124;SDS011;38119;52.710;6.398;2022-07-01T07:57:19;29.92;;;21.67;;
52124;SDS011;38119;52.710;6.398;2022-07-01T07:59:45;28.30;;;20.67;;
52124;SDS011;38119;52.710;6.398;2022-07-01T08:02:11;25.25;;;20.58;;
52124;SDS011;38119;52.710;6.398;2022-07-01T08:04:37;28.02;;;20.63;;
52124;SDS011;38119;52.710;6.398;2022-07-01T08:07:03;24.48;;;19.33;;
52124;SDS011;38119;52.710;6.398;2022-07-01T08:09:28;24.15;;;18.83;;
52124;SDS011;38119;52.710;6.398;2022-07-01T08:11:54;23.45;;;18.42;;
52124;SDS011;38119;52.710;6.398;2022-07-01T08:14:22;26.55;;;17.75;;
52124;SDS011;38119;52.710;6.398;2022-07-01T08:16:48;27.02;;;19.42;;
52124;SDS011;38119;52.710;6.398;2022-07-01T08:19:14;26.13;;;18.42;;
52124;SDS011;38119;52.710;6.398;2022-07-01T08:21:39;22.77;;;17.58;;
52124;SDS011;38119;52.710;6.398;2022-07-01T08:24:05;21.33;;;16.27;;
52124;SDS011;38119;52.710;6.398;2022-07-01T08:26:31;26.90;;;17.05;;
52124;SDS011;38119;52.710;6.398;2022-07-01T08:28:56;21.67;;;16.02;;
52124;SDS011;38119;52.710;6.398;2022-07-01T08:31:22;21.58;;;15.50;;
52124;SDS011;38119;52.710;6.398;2022-07-01T08:33:47;21.23;;;15.88;;
52124;SDS011;38119;52.710;6.398;2022-07-01T08:36:13;23.05;;;15.70;;
52124;SDS011;38119;52.710;6.398;2022-07-01T08:38:39;22.67;;;15.30;;
52124;SDS011;38119;52.710;6.398;2022-07-01T08:41:05;24.23;;;14.23;;
52124;SDS011;38119;52.710;6.398;2022-07-01T08:43:31;22.20;;;14.90;;
52124;SDS011;38119;52.710;6.398;2022-07-01T08:45:58;22.13;;;14.52;;
52124;SDS011;38119;52.710;6.398;2022-07-01T08:48:26;19.08;;;13.48;;
52124;SDS011;38119;52.710;6.398;2022-07-01T08:50:53;21.88;;;13.18;;
52124;SDS011;38119;52.710;6.398;2022-07-01T08:53:19;24.42;;;13.45;;
52124;SDS011;38119;52.710;6.398;2022-07-01T08:55:44;19.42;;;12.35;;
52124;SDS011;38119;52.710;6.398;2022-07-01T08:58:28;20.23;;;13.38;;
52124;SDS011;38119;52.710;6.398;2022-07-01T09:03:51;22.48;;;13.05;;
52124;SDS011;38119;52.710;6.398;2022-07-01T09:06:18;18.05;;;13.65;;
52124;SDS011;38119;52.710;6.398;2022-07-01T09:08:48;20.13;;;12.30;;
52124;SDS011;38119;52.710;6.398;2022-07-01T09:11:15;15.18;;;10.13;;
52124;SDS011;38119;52.710;6.398;2022-07-01T09:13:42;13.75;;;9.23;;
52124;SDS011;38119;52.710;6.398;2022-07-01T09:16:14;15.88;;;9.30;;
52124;SDS011;38119;52.710;6.398;2022-07-01T09:19:00;14.25;;;8.82;;
52124;SDS011;38119;52.710;6.398;2022-07-01T09:21:28;11.57;;;8.48;;
52124;SDS011;38119;52.710;6.398;2022-07-01T09:23:55;13.15;;;7.63;;
52124;SDS011;38119;52.710;6.398;2022-07-01T09:26:21;11.82;;;7.35;;
52124;SDS011;38119;52.710;6.398;2022-07-01T09:28:54;9.35;;;6.75;;
52124;SDS011;38119;52.710;6.398;2022-07-01T09:31:30;33.45;;;7.22;;
52124;SDS011;38119;52.710;6.398;2022-07-01T09:34:02;12.05;;;6.75;;
52124;SDS011;38119;52.710;6.398;2022-07-01T09:36:29;10.77;;;6.60;;
52124;SDS011;38119;52.710;6.398;2022-07-01T09:38:55;9.60;;;6.75;;
52124;SDS011;38119;52.710;6.398;2022-07-01T09:41:22;14.07;;;6.30;;
52124;SDS011;38119;52.710;6.398;2022-07-01T09:43:48;12.32;;;6.78;;
52124;SDS011;38119;52.710;6.398;2022-07-01T09:46:14;11.50;;;6.60;;
52124;SDS011;38119;52.710;6.398;2022-07-01T09:51:06;10.50;;;5.32;;
52124;SDS011;38119;52.710;6.398;2022-07-01T09:53:33;8.88;;;5.15;;
52124;SDS011;38119;52.710;6.398;2022-07-01T09:55:59;10.98;;;5.85;;
52124;SDS011;38119;52.710;6.398;2022-07-01T09:58:25;9.70;;;5.47;;
52124;SDS011;38119;52.710;6.398;2022-07-01T10:00:54;11.93;;;6.13;;
52124;SDS011;38119;52.710;6.398;2022-07-01T10:03:20;9.85;;;5.32;;
52124;SDS011;38119;52.710;6.398;2022-07-01T10:05:51;9.70;;;5.28;;
52124;SDS011;38119;52.710;6.398;2022-07-01T10:11:46;8.15;;;4.57;;
52124;SDS011;38119;52.710;6.398;2022-07-01T10:14:27;9.13;;;4.60;;
52124;SDS011;38119;52.710;6.398;2022-07-01T10:16:54;7.72;;;4.22;;
52124;SDS011;38119;52.710;6.398;2022-07-01T10:21:48;5.72;;;4.13;;
52124;SDS011;38119;52.710;6.398;2022-07-01T10:24:14;7.00;;;3.60;;
52124;SDS011;38119;52.710;6.398;2022-07-01T10:26:41;8.02;;;3.80;;
52124;SDS011;38119;52.710;6.398;2022-07-01T10:31:51;7.57;;;3.75;;
52124;SDS011;38119;52.710;6.398;2022-07-01T10:34:16;6.72;;;3.35;;
52124;SDS011;38119;52.710;6.398;2022-07-01T10:36:43;6.45;;;3.22;;
52124;SDS011;38119;52.710;6.398;2022-07-01T10:39:10;5.80;;;2.80;;
52124;SDS011;38119;52.710;6.398;2022-07-01T10:44:08;7.20;;;3.10;;
52124;SDS011;38119;52.710;6.398;2022-07-01T10:46:51;7.25;;;2.92;;
52124;SDS011;38119;52.710;6.398;2022-07-01T10:59:48;4.45;;;2.30;;
52124;SDS011;38119;52.710;6.398;2022-07-01T11:02:16;5.82;;;2.40;;
52124;SDS011;38119;52.710;6.398;2022-07-01T11:04:44;7.68;;;2.78;;
52124;SDS011;38119;52.710;6.398;2022-07-01T11:07:11;4.82;;;2.15;;
52124;SDS011;38119;52.710;6.398;2022-07-01T11:09:37;5.03;;;2.08;;
52124;SDS011;38119;52.710;6.398;2022-07-01T11:12:03;6.38;;;2.25;;
52124;SDS011;38119;52.710;6.398;2022-07-01T11:14:33;4.13;;;1.75;;
52124;SDS011;38119;52.710;6.398;2022-07-01T11:17:02;5.00;;;1.70;;
52124;SDS011;38119;52.710;6.398;2022-07-01T11:19:29;5.82;;;1.73;;
52124;SDS011;38119;52.710;6.398;2022-07-01T11:21:54;6.43;;;2.25;;
52124;SDS011;38119;52.710;6.398;2022-07-01T11:24:21;6.03;;;1.85;;
52124;SDS011;38119;52.710;6.398;2022-07-01T11:26:50;6.97;;;2.10;;
52124;SDS011;38119;52.710;6.398;2022-07-01T11:29:24;4.15;;;1.80;;
52124;SDS011;38119;52.710;6.398;2022-07-01T11:31:51;3.75;;;1.60;;
52124;SDS011;38119;52.710;6.398;2022-07-01T11:34:17;6.10;;;2.00;;
52124;SDS011;38119;52.710;6.398;2022-07-01T11:36:44;11.10;;;2.47;;
52124;SDS011;38119;52.710;6.398;2022-07-01T11:39:29;5.25;;;1.83;;
52124;SDS011;38119;52.710;6.398;2022-07-01T11:42:02;7.00;;;2.42;;
52124;SDS011;38119;52.710;6.398;2022-07-01T11:44:35;6.03;;;2.03;;
52124;SDS011;38119;52.710;6.398;2022-07-01T11:47:05;3.05;;;1.20;;
52124;SDS011;38119;52.710;6.398;2022-07-01T11:52:00;3.70;;;1.23;;
52124;SDS011;38119;52.710;6.398;2022-07-01T11:54:28;3.10;;;1.42;;
52124;SDS011;38119;52.710;6.398;2022-07-01T11:56:54;3.67;;;1.75;;
52124;SDS011;38119;52.710;6.398;2022-07-01T11:59:20;6.07;;;1.90;;
52124;SDS011;38119;52.710;6.398;2022-07-01T12:01:55;10.05;;;1.60;;
52124;SDS011;38119;52.710;6.398;2022-07-01T12:04:20;5.32;;;1.50;;
52124;SDS011;38119;52.710;6.398;2022-07-01T12:06:49;5.30;;;1.48;;
52124;SDS011;38119;52.710;6.398;2022-07-01T12:09:18;7.30;;;1.80;;
52124;SDS011;38119;52.710;6.398;2022-07-01T12:11:46;4.68;;;1.50;;
52124;SDS011;38119;52.710;6.398;2022-07-01T12:14:20;4.47;;;1.90;;
52124;SDS011;38119;52.710;6.398;2022-07-01T12:16:54;9.07;;;1.70;;
52124;SDS011;38119;52.710;6.398;2022-07-01T12:19:38;6.53;;;1.40;;
52124;SDS011;38119;52.710;6.398;2022-07-01T12:22:05;4.65;;;1.65;;
52124;SDS011;38119;52.710;6.398;2022-07-01T12:24:40;4.30;;;1.40;;
52124;SDS011;38119;52.710;6.398;2022-07-01T12:27:07;4.65;;;1.58;;
52124;SDS011;38119;52.710;6.398;2022-07-01T12:32:12;3.90;;;1.50;;
52124;SDS011;38119;52.710;6.398;2022-07-01T12:34:42;6.38;;;1.88;;
52124;SDS011;38119;52.710;6.398;2022-07-01T12:37:13;5.28;;;1.60;;
52124;SDS011;38119;52.710;6.398;2022-07-01T12:39:41;9.63;;;1.95;;
52124;SDS011;38119;52.710;6.398;2022-07-01T12:44:48;5.45;;;1.70;;
52124;SDS011;38119;52.710;6.398;2022-07-01T12:47:56;6.13;;;1.80;;
52124;SDS011;38119;52.710;6.398;2022-07-01T12:50:10;6.15;;;1.60;;
52124;SDS011;38119;52.710;6.398;2022-07-01T12:52:37;6.72;;;2.00;;
52124;SDS011;38119;52.710;6.398;2022-07-01T12:55:16;4.53;;;1.70;;
52124;SDS011;38119;52.710;6.398;2022-07-01T12:57:45;3.83;;;1.40;;
52124;SDS011;38119;52.710;6.398;2022-07-01T13:00:12;4.10;;;1.50;;
52124;SDS011;38119;52.710;6.398;2022-07-01T13:02:38;5.15;;;1.50;;
52124;SDS011;38119;52.710;6.398;2022-07-01T13:05:04;5.72;;;1.50;;
52124;SDS011;38119;52.710;6.398;2022-07-01T13:07:30;6.90;;;1.75;;
52124;SDS011;38119;52.710;6.398;2022-07-01T13:09:56;6.28;;;1.67;;
52124;SDS011;38119;52.710;6.398;2022-07-01T13:12:21;3.70;;;1.60;;
52124;SDS011;38119;52.710;6.398;2022-07-01T13:14:50;5.65;;;1.55;;
52124;SDS011;38119;52.710;6.398;2022-07-01T13:17:15;4.05;;;1.48;;
52124;SDS011;38119;52.710;6.398;2022-07-01T13:19:41;4.07;;;1.40;;
52124;SDS011;38119;52.710;6.398;2022-07-01T13:22:07;5.43;;;1.77;;
52124;SDS011;38119;52.710;6.398;2022-07-01T13:24:32;5.50;;;1.33;;
52124;SDS011;38119;52.710;6.398;2022-07-01T13:26:58;4.35;;;1.52;;
52124;SDS011;38119;52.710;6.398;2022-07-01T13:29:23;3.42;;;1.42;;
52124;SDS011;38119;52.710;6.398;2022-07-01T13:31:49;5.97;;;1.48;;
52124;SDS011;38119;52.710;6.398;2022-07-01T13:34:15;4.38;;;1.60;;
52124;SDS011;38119;52.710;6.398;2022-07-01T13:36:40;5.60;;;1.70;;
52124;SDS011;38119;52.710;6.398;2022-07-01T13:39:06;3.80;;;1.77;;
52124;SDS011;38119;52.710;6.398;2022-07-01T13:41:32;4.30;;;1.60;;
52124;SDS011;38119;52.710;6.398;2022-07-01T13:43:57;7.22;;;2.45;;
52124;SDS011;38119;52.710;6.398;2022-07-01T13:46:23;3.50;;;1.48;;
52124;SDS011;38119;52.710;6.398;2022-07-01T13:48:49;4.47;;;1.73;;
52124;SDS011;38119;52.710;6.398;2022-07-01T13:51:14;5.82;;;1.75;;
52124;SDS011;38119;52.710;6.398;2022-07-01T13:53:40;3.50;;;1.50;;
52124;SDS011;38119;52.710;6.398;2022-07-01T13:56:06;4.15;;;1.80;;
52124;SDS011;38119;52.710;6.398;2022-07-01T13:58:31;4.00;;;1.60;;
52124;SDS011;38119;52.710;6.398;2022-07-01T14:00:57;6.32;;;1.73;;
52124;SDS011;38119;52.710;6.398;2022-07-01T14:03:23;4.68;;;1.60;;
52124;SDS011;38119;52.710;6.398;2022-07-01T14:05:48;4.90;;;1.60;;
52124;SDS011;38119;52.710;6.398;2022-07-01T14:08:14;4.75;;;1.80;;
52124;SDS011;38119;52.710;6.398;2022-07-01T14:10:40;6.80;;;2.13;;
52124;SDS011;38119;52.710;6.398;2022-07-01T14:13:06;6.63;;;1.80;;
52124;SDS011;38119;52.710;6.398;2022-07-01T14:15:32;5.10;;;1.50;;
52124;SDS011;38119;52.710;6.398;2022-07-01T14:18:00;5.60;;;1.52;;
52124;SDS011;38119;52.710;6.398;2022-07-01T14:20:26;8.70;;;1.60;;
52124;SDS011;38119;52.710;6.398;2022-07-01T14:22:52;4.22;;;1.50;;
52124;SDS011;38119;52.710;6.398;2022-07-01T14:25:18;5.43;;;1.70;;
52124;SDS011;38119;52.710;6.398;2022-07-01T14:27:45;6.35;;;1.63;;
52124;SDS011;38119;52.710;6.398;2022-07-01T14:30:11;4.80;;;1.50;;
52124;SDS011;38119;52.710;6.398;2022-07-01T14:32:37;6.43;;;1.70;;
52124;SDS011;38119;52.710;6.398;2022-07-01T14:35:04;3.92;;;1.55;;
52124;SDS011;38119;52.710;6.398;2022-07-01T14:37:30;3.33;;;1.35;;
52124;SDS011;38119;52.710;6.398;2022-07-01T14:39:56;3.65;;;1.27;;
52124;SDS011;38119;52.710;6.398;2022-07-01T14:42:25;4.00;;;1.45;;
52124;SDS011;38119;52.710;6.398;2022-07-01T14:44:52;8.07;;;1.58;;
52124;SDS011;38119;52.710;6.398;2022-07-01T14:47:21;4.53;;;1.35;;
52124;SDS011;38119;52.710;6.398;2022-07-01T14:49:47;5.25;;;1.35;;
52124;SDS011;38119;52.710;6.398;2022-07-01T14:52:16;4.45;;;1.52;;
52124;SDS011;38119;52.710;6.398;2022-07-01T14:54:44;5.35;;;1.92;;
52124;SDS011;38119;52.710;6.398;2022-07-01T14:57:10;6.63;;;1.40;;
52124;SDS011;38119;52.710;6.398;2022-07-01T14:59:36;5.50;;;1.38;;
52124;SDS011;38119;52.710;6.398;2022-07-01T15:02:02;4.18;;;1.63;;
52124;SDS011;38119;52.710;6.398;2022-07-01T15:04:32;5.65;;;1.50;;
52124;SDS011;38119;52.710;6.398;2022-07-01T15:06:58;4.55;;;1.33;;
52124;SDS011;38119;52.710;6.398;2022-07-01T15:09:24;4.45;;;1.38;;